createdAt,value
2019-04-30T00:00:09.888Z,8.8
2019-04-30T00:05:15.052Z,8.5
2019-04-30T00:10:15.453Z,8.3
2019-04-30T00:15:19.376Z,8.3
2019-04-30T00:20:19.813Z,8.2
2019-04-30T00:25:24.784Z,8.3
2019-04-30T00:30:25.196Z,8.3
2019-04-30T00:35:27.289Z,8.3
2019-04-30T00:40:30.182Z,8.2
2019-04-30T00:45:32.063Z,7.9
2019-04-30T00:50:37.165Z,7.5
2019-04-30T01:00:39.454Z,6.8
2019-04-30T01:05:44.403Z,6.5
2019-04-30T01:10:45.971Z,6.2
2019-04-30T01:15:48.876Z,6
2019-04-30T01:20:49.211Z,5.7
2019-04-30T01:25:52.042Z,5.5
2019-04-30T01:30:58.607Z,5.4
2019-04-30T01:35:56.598Z,5.3
2019-04-30T01:40:59.568Z,5.2
2019-04-30T01:46:08.324Z,5.1
2019-04-30T01:51:03.951Z,5.1
2019-04-30T01:56:06.680Z,5
2019-04-30T02:01:09.102Z,4.9
2019-04-30T02:06:11.518Z,4.9
2019-04-30T02:11:13.782Z,4.8
2019-04-30T02:16:16.234Z,4.8
2019-04-30T02:21:19.418Z,4.7
2019-04-30T02:26:21.581Z,4.6
2019-04-30T02:31:23.819Z,4.5
2019-04-30T02:36:26.319Z,4.4
2019-04-30T02:41:29.252Z,4.3
2019-04-30T02:46:32.232Z,4.2
2019-04-30T02:51:33.506Z,4.1
2019-04-30T02:56:35.992Z,4
2019-04-30T03:01:40.178Z,3.9
2019-04-30T03:06:40.885Z,3.8
2019-04-30T03:11:43.656Z,3.8
2019-04-30T03:16:45.813Z,3.7
2019-04-30T03:21:50.181Z,3.6
2019-04-30T03:26:50.816Z,3.6
2019-04-30T03:31:53.327Z,3.5
2019-04-30T03:36:55.795Z,3.4
2019-04-30T03:41:59.631Z,3.3
2019-04-30T03:47:00.587Z,3.2
2019-04-30T03:52:03.074Z,3.1
2019-04-30T03:57:05.593Z,3
2019-04-30T04:02:09.395Z,3
2019-04-30T04:07:10.407Z,2.8
2019-04-30T04:12:13.075Z,2.8
2019-04-30T04:17:15.386Z,2.9
2019-04-30T04:22:20.286Z,2.9
2019-04-30T04:27:20.399Z,3
2019-04-30T04:32:24.173Z,3.1
2019-04-30T04:37:25.574Z,3.2
2019-04-30T04:42:29.909Z,3.3
2019-04-30T04:47:30.967Z,3.4
2019-04-30T04:52:32.853Z,3.6
2019-04-30T04:57:35.164Z,3.7
2019-04-30T05:02:39.610Z,3.9
2019-04-30T05:07:40.178Z,4
2019-04-30T05:12:42.436Z,4.1
2019-04-30T05:17:45.180Z,4.3
2019-04-30T05:22:48.842Z,4.4
2019-04-30T05:27:49.867Z,4.6
2019-04-30T05:32:52.265Z,4.8
2019-04-30T05:37:54.726Z,5
2019-04-30T05:42:57.470Z,5.2
2019-04-30T05:47:59.720Z,5.5
2019-04-30T05:53:02.288Z,5.9
2019-04-30T05:58:04.569Z,6.3
2019-04-30T06:03:09.235Z,6.8
2019-04-30T06:08:09.510Z,7.2
2019-04-30T06:13:12.266Z,7.7
2019-04-30T06:18:14.392Z,8.3
2019-04-30T06:23:16.846Z,8.5
2019-04-30T06:28:19.629Z,8.4
2019-04-30T06:33:21.816Z,8.2
2019-04-30T06:38:24.211Z,8.2
2019-04-30T06:43:28.577Z,8.3
2019-04-30T06:48:29.560Z,9.1
2019-04-30T06:53:31.602Z,10.2
2019-04-30T06:58:34.028Z,11.5
2019-04-30T07:03:36.593Z,13.8
2019-04-30T07:08:42.575Z,17.4
2019-04-30T07:13:41.768Z,21
2019-04-30T07:18:44.066Z,23.9
2019-04-30T07:23:46.353Z,26.4
2019-04-30T07:28:54.209Z,27.8
2019-04-30T07:38:56.564Z,27.2
2019-04-30T07:43:56.411Z,28.1
2019-04-30T07:48:59.912Z,26.6
2019-04-30T07:54:01.069Z,26.1
2019-04-30T07:59:03.679Z,28
2019-04-30T08:04:06.037Z,30.8
2019-04-30T08:09:10.266Z,32.7
2019-04-30T08:14:11.050Z,33.8
2019-04-30T08:19:13.380Z,34.8
2019-04-30T08:24:15.851Z,34.6
2019-04-30T08:29:19.475Z,33.1
2019-04-30T08:39:23.266Z,33.1
2019-04-30T08:44:25.797Z,33.8
2019-04-30T08:49:30.364Z,33.9
2019-04-30T08:54:30.614Z,35.1
2019-04-30T08:59:33.066Z,36.1
2019-04-30T09:04:35.683Z,36.7
2019-04-30T09:09:38.948Z,35.3
2019-04-30T09:14:40.740Z,34.2
2019-04-30T09:19:42.966Z,34.9
2019-04-30T09:24:45.485Z,34.6
2019-04-30T09:29:49.151Z,34.7
2019-04-30T09:34:50.370Z,36.3
2019-04-30T09:39:52.944Z,37.9
2019-04-30T09:44:57.212Z,37.7
2019-04-30T09:49:59.580Z,37.4
2019-04-30T09:55:00.624Z,37.2
2019-04-30T10:00:02.640Z,37.3
2019-04-30T10:05:05.497Z,38.3
2019-04-30T10:10:09.450Z,39.2
2019-04-30T10:15:09.996Z,39.6
2019-04-30T10:20:12.548Z,40.2
2019-04-30T10:25:14.942Z,40.5
2019-04-30T10:30:19.099Z,40.7
2019-04-30T10:35:20.350Z,39.9
2019-04-30T10:40:22.556Z,39.7
2019-04-30T10:45:25.074Z,39.6
2019-04-30T10:50:27.185Z,39.8
2019-04-30T10:55:31.104Z,39.5
2019-04-30T11:00:32.160Z,39.2
2019-04-30T11:05:34.632Z,36.9
2019-04-30T11:10:37.047Z,33.6
2019-04-30T11:15:39.847Z,31.7
2019-04-30T11:20:42.465Z,32.9
2019-04-30T11:25:45.529Z,34.3
2019-04-30T11:30:47.185Z,33.1
2019-04-30T11:36:01.654Z,31.9
2019-04-30T11:40:51.849Z,32.4
2019-04-30T11:45:54.531Z,33.8
2019-04-30T11:50:56.731Z,34.4
2019-04-30T11:55:59.593Z,35.6
2019-04-30T12:01:01.891Z,36.4
2019-04-30T12:06:04.546Z,36.7
2019-04-30T12:11:06.625Z,36.2
2019-04-30T12:16:09.140Z,35.9
2019-04-30T12:21:11.509Z,35.6
2019-04-30T12:26:14.112Z,34.6
2019-04-30T12:31:16.419Z,33.1
2019-04-30T12:36:18.974Z,31.7
2019-04-30T12:41:21.352Z,31
2019-04-30T12:46:23.799Z,30
2019-04-30T12:51:26.485Z,28.6
2019-04-30T12:56:29.759Z,26.9
2019-04-30T13:01:32.149Z,25.9
2019-04-30T13:06:34.230Z,25.3
2019-04-30T13:11:36.374Z,24.9
2019-04-30T13:16:39.279Z,24.2
2019-04-30T13:21:41.006Z,23.2
2019-04-30T13:26:43.449Z,21.9
2019-04-30T13:31:46.097Z,21
2019-04-30T13:36:49.336Z,20.5
2019-04-30T13:41:51.174Z,20.5
2019-04-30T13:46:53.354Z,20.4
2019-04-30T13:51:56.105Z,20.3
2019-04-30T13:56:59.109Z,20.2
2019-04-30T14:02:00.726Z,20.1
2019-04-30T14:07:03.253Z,20
2019-04-30T14:12:05.696Z,19.9
2019-04-30T14:17:09.291Z,19.9
2019-04-30T14:22:10.514Z,19.8
2019-04-30T14:27:12.998Z,19.6
2019-04-30T14:32:15.442Z,19.4
2019-04-30T14:37:17.917Z,19.3
2019-04-30T14:42:21.169Z,19.1
2019-04-30T14:47:23.927Z,19
2019-04-30T14:52:25.271Z,18.8
2019-04-30T14:57:27.710Z,18.6
2019-04-30T15:02:30.180Z,18.5
2019-04-30T15:07:32.644Z,18.4
2019-04-30T15:12:35.079Z,18.4
2019-04-30T15:17:39.158Z,18.3
2019-04-30T15:22:40.165Z,18.2
2019-04-30T15:27:44.826Z,18
2019-04-30T15:32:44.938Z,18
2019-04-30T15:37:48.620Z,17.9
2019-04-30T15:42:49.962Z,17.8
2019-04-30T15:47:52.283Z,17.6
2019-04-30T15:52:54.770Z,17.4
2019-04-30T15:57:57.523Z,17.3
2019-04-30T16:03:00.189Z,17.3
2019-04-30T16:13:04.563Z,17
2019-04-30T16:18:07.133Z,16.9
2019-04-30T16:23:09.475Z,16.8
2019-04-30T16:28:12.030Z,16.6
2019-04-30T16:33:14.416Z,16.5
2019-04-30T16:38:18.332Z,16.3
2019-04-30T16:43:20.312Z,16.1
2019-04-30T16:48:22.406Z,15.9
2019-04-30T16:53:24.414Z,15.8
2019-04-30T16:58:26.705Z,15.6
2019-04-30T17:03:29.168Z,15.5
2019-04-30T17:08:31.604Z,15.3
2019-04-30T17:13:34.261Z,15.1
2019-04-30T17:18:36.691Z,14.9
2019-04-30T17:23:39.014Z,14.7
2019-04-30T17:28:41.445Z,14.5
2019-04-30T17:33:44.002Z,14.3
2019-04-30T17:38:46.430Z,13.8
2019-04-30T17:43:49.542Z,13.5
2019-04-30T17:48:51.726Z,13.1
2019-04-30T17:53:53.774Z,12.7
2019-04-30T17:58:56.198Z,12.4
2019-04-30T18:03:58.862Z,12.1
2019-04-30T18:09:01.108Z,11.8
2019-04-30T18:14:03.589Z,11.6
2019-04-30T18:19:06.505Z,11.3
2019-04-30T18:24:08.683Z,11
2019-04-30T18:29:11.133Z,10.7
2019-04-30T18:34:13.463Z,10.3
2019-04-30T18:39:15.903Z,10
2019-04-30T18:44:19.510Z,9.8
2019-04-30T18:49:20.769Z,9.5
2019-04-30T18:54:23.231Z,9.3
2019-04-30T18:59:25.716Z,9.1
2019-04-30T19:04:28.785Z,8.9
2019-04-30T19:09:30.615Z,8.8
2019-04-30T19:14:33.121Z,8.6
2019-04-30T19:19:35.586Z,8.4
2019-04-30T19:24:38.002Z,8.2
2019-04-30T19:29:40.475Z,8.2
2019-04-30T19:34:42.893Z,8
2019-04-30T19:39:45.332Z,7.9
2019-04-30T19:44:56.699Z,7.8
2019-04-30T19:49:50.724Z,7.8
2019-04-30T19:54:52.722Z,7.7
2019-04-30T19:59:55.172Z,7.6
2019-04-30T20:04:59.010Z,7.5
2019-04-30T20:10:03.846Z,7.4
2019-04-30T20:15:02.570Z,7.3
2019-04-30T20:20:05.365Z,7.2
2019-04-30T20:25:09.117Z,7
2019-04-30T20:30:09.934Z,6.8
2019-04-30T20:35:12.412Z,6.6
2019-04-30T20:40:15.010Z,6.5
2019-04-30T20:45:18.825Z,6.4
2019-04-30T20:50:20.091Z,6.3
2019-04-30T20:55:22.333Z,6.2
2019-04-30T21:00:24.646Z,6
2019-04-30T21:05:27.238Z,5.9
2019-04-30T21:10:29.819Z,5.7
2019-04-30T21:15:32.024Z,5.6
2019-04-30T21:20:34.859Z,5.5
2019-04-30T21:25:38.680Z,5.3
2019-04-30T21:30:39.477Z,5.2
2019-04-30T21:35:41.913Z,5.1
2019-04-30T21:40:45.029Z,4.9
2019-04-30T21:45:46.788Z,4.8
2019-04-30T21:50:49.846Z,4.7
2019-04-30T21:55:51.835Z,4.6
2019-04-30T22:00:54.239Z,4.5
2019-04-30T22:05:56.689Z,4.4
2019-04-30T22:11:00.202Z,4.3
2019-04-30T22:16:01.568Z,4.1
2019-04-30T22:21:04.040Z,4
2019-04-30T22:26:06.903Z,3.9
2019-04-30T22:31:08.977Z,3.9
2019-04-30T22:36:11.461Z,3.8
2019-04-30T22:41:13.916Z,3.8
2019-04-30T22:46:16.421Z,3.7
2019-04-30T22:51:19.175Z,3.7
2019-04-30T22:56:21.432Z,3.6
2019-04-30T23:01:23.787Z,3.6
2019-04-30T23:06:26.282Z,3.5
2019-04-30T23:11:28.746Z,3.4
2019-04-30T23:16:31.213Z,3.4
2019-04-30T23:21:33.962Z,3.3
2019-04-30T23:26:36.074Z,3.3
2019-04-30T23:31:38.591Z,3.2
2019-04-30T23:36:41.142Z,3.2
2019-04-30T23:41:43.482Z,3.1
2019-04-30T23:46:45.955Z,3.1
2019-04-30T23:51:50.489Z,3
2019-04-30T23:56:50.955Z,2.9
